createdAt,value
2019-03-06T00:02:52.850Z,9.93
2019-03-06T00:04:09.433Z,9.93
2019-03-06T00:05:26.287Z,9.45
2019-03-06T00:06:42.812Z,10.48
2019-03-06T00:07:59.195Z,10.32
2019-03-06T00:09:15.981Z,9.80
2019-03-06T00:10:32.517Z,10.25
2019-03-06T00:11:49.748Z,10.30
2019-03-06T00:13:06.124Z,9.68
2019-03-06T00:14:22.744Z,10.15
2019-03-06T00:15:39.108Z,9.63
2019-03-06T00:16:56.237Z,9.90
2019-03-06T00:18:12.685Z,12.10
2019-03-06T00:19:28.906Z,10.43
2019-03-06T00:20:45.414Z,10.90
2019-03-06T00:22:01.874Z,11.85
2019-03-06T00:23:22.332Z,12.15
2019-03-06T00:24:38.761Z,11.65
2019-03-06T00:25:56.085Z,13.05
2019-03-06T00:27:12.623Z,14.07
2019-03-06T00:28:28.136Z,12.63
2019-03-06T00:29:52.259Z,12.93
2019-03-06T00:31:08.684Z,13.28
2019-03-06T00:32:25.243Z,14.38
2019-03-06T00:33:41.592Z,14.05
2019-03-06T00:34:59.325Z,14.35
2019-03-06T00:36:19.872Z,15.08
2019-03-06T00:37:37.467Z,14.03
2019-03-06T00:38:54.613Z,12.47
2019-03-06T00:42:01.813Z,12.47
2019-03-06T00:43:18.258Z,12.58
2019-03-06T00:44:34.613Z,10.68
2019-03-06T00:45:51.317Z,11.10
2019-03-06T00:47:07.909Z,10.75
2019-03-06T00:48:24.745Z,10.88
2019-03-06T00:49:41.242Z,9.60
2019-03-06T00:50:57.522Z,10.05
2019-03-06T00:52:14.563Z,9.25
2019-03-06T00:53:30.901Z,8.88
2019-03-06T00:54:47.622Z,9.20
2019-03-06T00:56:04.040Z,8.53
2019-03-06T00:57:20.537Z,9.35
2019-03-06T00:58:36.971Z,8.40
2019-03-06T00:59:53.410Z,8.30
2019-03-06T01:01:09.853Z,9.30
2019-03-06T01:02:27.124Z,8.95
2019-03-06T01:03:43.429Z,8.60
2019-03-06T01:05:00.476Z,9.73
2019-03-06T01:06:17.153Z,9.93
2019-03-06T01:07:33.681Z,11.25
2019-03-06T01:08:48.944Z,10.43
2019-03-06T01:10:13.126Z,11.08
2019-03-06T01:11:29.853Z,11.28
2019-03-06T01:12:46.293Z,10.10
2019-03-06T01:14:01.521Z,11.85
2019-03-06T01:15:26.671Z,10.38
2019-03-06T01:16:43.055Z,10.45
2019-03-06T01:17:59.539Z,11.73
2019-03-06T01:19:16.075Z,12.15
2019-03-06T01:20:32.722Z,11.45
2019-03-06T01:21:49.455Z,11.63
2019-03-06T01:23:05.997Z,12.15
2019-03-06T01:24:22.499Z,11.38
2019-03-06T01:25:39.895Z,12.40
2019-03-06T01:26:56.321Z,11.63
2019-03-06T01:28:13.033Z,12.93
2019-03-06T01:29:29.326Z,13.18
2019-03-06T01:30:45.746Z,11.60
2019-03-06T01:32:02.273Z,9.48
2019-03-06T01:33:44.621Z,13.05
2019-03-06T01:35:19.978Z,13.32
2019-03-06T01:36:55.480Z,14.60
2019-03-06T01:40:16.927Z,13.62
2019-03-06T01:41:52.478Z,13.20
2019-03-06T01:43:13.468Z,12.98
2019-03-06T01:44:34.973Z,14.58
2019-03-06T01:45:52.274Z,15.20
2019-03-06T01:47:09.029Z,13.75
2019-03-06T01:48:25.365Z,14.18
2019-03-06T01:49:41.890Z,14.47
2019-03-06T01:50:58.838Z,14.60
2019-03-06T01:52:15.482Z,15.10
2019-03-06T01:53:32.016Z,14.53
2019-03-06T01:54:48.573Z,15.40
2019-03-06T01:56:05.155Z,16.20
2019-03-06T01:57:21.686Z,15.00
2019-03-06T01:58:38.184Z,15.28
2019-03-06T01:59:54.619Z,14.55
2019-03-06T02:01:11.021Z,15.05
2019-03-06T02:02:27.593Z,14.93
2019-03-06T02:03:44.025Z,15.78
2019-03-06T02:05:00.834Z,14.75
2019-03-06T02:06:18.023Z,15.03
2019-03-06T02:07:34.561Z,15.05
2019-03-06T02:08:51.289Z,15.20
2019-03-06T02:10:07.830Z,15.08
2019-03-06T02:11:24.841Z,15.45
2019-03-06T02:12:44.483Z,14.95
2019-03-06T02:14:02.035Z,13.60
2019-03-06T02:15:18.459Z,13.95
2019-03-06T02:16:35.528Z,13.38
2019-03-06T02:17:51.898Z,14.70
2019-03-06T02:19:08.533Z,14.10
2019-03-06T02:20:26.046Z,13.75
2019-03-06T02:21:42.959Z,14.15
2019-03-06T02:23:00.133Z,13.15
2019-03-06T02:24:17.197Z,12.85
2019-03-06T02:25:33.811Z,13.95
2019-03-06T02:26:50.913Z,14.33
2019-03-06T02:28:07.371Z,15.10
2019-03-06T02:29:24.021Z,15.13
2019-03-06T02:30:40.426Z,13.15
2019-03-06T02:31:56.790Z,12.35
2019-03-06T02:33:13.401Z,13.80
2019-03-06T02:34:29.812Z,13.05
2019-03-06T02:35:46.299Z,13.18
2019-03-06T02:37:02.766Z,14.03
2019-03-06T02:38:19.941Z,14.60
2019-03-06T02:39:36.451Z,13.90
2019-03-06T02:40:53.297Z,14.65
2019-03-06T02:42:09.575Z,12.30
2019-03-06T02:43:26.326Z,12.78
2019-03-06T02:44:42.733Z,13.55
2019-03-06T02:45:59.929Z,13.00
2019-03-06T02:47:16.438Z,12.70
2019-03-06T02:48:33.403Z,12.60
2019-03-06T02:49:49.972Z,12.95
2019-03-06T02:51:06.350Z,12.80
2019-03-06T02:52:24.322Z,12.05
2019-03-06T02:53:41.125Z,11.55
2019-03-06T02:54:57.693Z,11.05
2019-03-06T02:56:14.055Z,11.00
2019-03-06T02:57:30.569Z,10.85
2019-03-06T02:59:06.542Z,10.90
2019-03-06T03:00:48.537Z,11.10
2019-03-06T03:02:24.281Z,11.97
2019-03-06T03:03:59.671Z,12.10
2019-03-06T03:05:24.980Z,12.58
2019-03-06T03:07:01.221Z,11.90
2019-03-06T03:08:18.394Z,11.57
2019-03-06T03:09:35.274Z,11.90
2019-03-06T03:10:51.605Z,11.70
2019-03-06T03:12:08.009Z,12.15
2019-03-06T03:13:24.625Z,12.03
2019-03-06T03:14:41.224Z,11.45
2019-03-06T03:15:57.766Z,11.12
2019-03-06T03:17:14.139Z,12.23
2019-03-06T03:18:29.391Z,12.37
2019-03-06T03:19:53.681Z,12.60
2019-03-06T03:21:10.223Z,11.45
2019-03-06T03:22:27.532Z,13.65
2019-03-06T03:23:44.078Z,12.90
2019-03-06T03:25:00.503Z,11.33
2019-03-06T03:26:17.078Z,12.40
2019-03-06T03:27:33.527Z,13.32
2019-03-06T03:28:50.391Z,12.13
2019-03-06T03:30:07.581Z,12.60
2019-03-06T03:31:24.741Z,12.75
2019-03-06T03:32:41.370Z,12.20
2019-03-06T03:33:58.137Z,12.18
2019-03-06T03:35:14.907Z,12.40
2019-03-06T03:36:31.737Z,12.85
2019-03-06T03:37:48.925Z,13.08
2019-03-06T03:39:05.397Z,12.85
2019-03-06T03:40:22.984Z,12.25
2019-03-06T03:41:39.312Z,12.63
2019-03-06T03:42:55.889Z,13.75
2019-03-06T03:44:13.252Z,12.55
2019-03-06T03:45:29.545Z,12.23
2019-03-06T03:46:46.768Z,12.40
2019-03-06T03:48:03.419Z,13.85
2019-03-06T03:49:20.123Z,12.90
2019-03-06T03:50:36.529Z,13.18
2019-03-06T03:51:53.020Z,12.55
2019-03-06T03:53:09.485Z,13.58
2019-03-06T03:54:25.973Z,14.13
2019-03-06T03:55:42.878Z,13.03
2019-03-06T03:56:59.435Z,14.63
2019-03-06T03:58:17.072Z,15.35
2019-03-06T03:59:33.346Z,13.90
2019-03-06T04:00:49.785Z,15.50
2019-03-06T04:02:06.781Z,15.65
2019-03-06T04:03:23.982Z,15.75
2019-03-06T04:04:41.134Z,13.72
2019-03-06T04:05:57.416Z,15.83
2019-03-06T04:07:16.460Z,14.75
2019-03-06T04:08:31.780Z,15.05
2019-03-06T04:09:55.898Z,15.45
2019-03-06T04:11:20.068Z,15.60
2019-03-06T04:12:36.937Z,14.75
2019-03-06T04:13:54.321Z,16.42
2019-03-06T04:15:10.755Z,16.93
2019-03-06T04:16:27.561Z,16.05
2019-03-06T04:17:44.033Z,17.02
2019-03-06T04:19:00.365Z,17.80
2019-03-06T04:20:16.779Z,18.15
2019-03-06T04:21:33.880Z,19.07
2019-03-06T04:22:50.372Z,17.48
2019-03-06T04:24:07.921Z,18.10
2019-03-06T04:25:24.480Z,17.65
2019-03-06T04:26:41.675Z,17.70
2019-03-06T04:27:58.291Z,17.77
2019-03-06T04:29:14.753Z,18.12
2019-03-06T04:30:31.209Z,16.07
2019-03-06T04:31:47.741Z,16.62
2019-03-06T04:33:04.734Z,16.55
2019-03-06T04:34:21.368Z,16.37
2019-03-06T04:35:37.993Z,17.40
2019-03-06T04:36:54.642Z,14.60
2019-03-06T04:38:11.303Z,15.00
2019-03-06T04:39:28.381Z,12.53
2019-03-06T04:42:00.555Z,12.20
2019-03-06T04:43:17.853Z,13.55
2019-03-06T04:44:34.317Z,17.92
2019-03-06T04:45:50.913Z,11.80
2019-03-06T04:47:07.561Z,12.93
2019-03-06T04:48:23.861Z,12.55
2019-03-06T04:49:40.425Z,12.73
2019-03-06T04:50:56.922Z,13.58
2019-03-06T04:52:13.250Z,14.10
2019-03-06T04:53:29.624Z,12.90
2019-03-06T04:54:46.029Z,13.75
2019-03-06T04:56:02.876Z,13.13
2019-03-06T04:57:19.286Z,14.38
2019-03-06T04:58:36.361Z,12.80
2019-03-06T04:59:53.185Z,14.35
2019-03-06T05:01:10.337Z,14.18
2019-03-06T05:02:26.759Z,14.03
2019-03-06T05:03:43.465Z,14.18
2019-03-06T05:05:00.733Z,14.78
2019-03-06T05:06:17.493Z,14.68
2019-03-06T05:07:34.723Z,15.00
2019-03-06T05:08:51.256Z,14.50
2019-03-06T05:10:08.027Z,15.72
2019-03-06T05:11:24.509Z,15.58
2019-03-06T05:12:40.940Z,16.32
2019-03-06T05:13:57.378Z,15.13
2019-03-06T05:15:14.790Z,17.82
2019-03-06T05:16:50.753Z,16.32
2019-03-06T05:18:13.505Z,17.02
2019-03-06T05:19:30.447Z,15.10
2019-03-06T05:20:47.494Z,15.83
2019-03-06T05:22:04.136Z,16.62
2019-03-06T05:23:20.597Z,16.85
2019-03-06T05:24:37.094Z,16.20
2019-03-06T05:25:54.302Z,15.72
2019-03-06T05:27:11.225Z,15.03
2019-03-06T05:28:27.769Z,15.83
2019-03-06T05:29:44.091Z,15.40
2019-03-06T05:31:00.989Z,15.18
2019-03-06T05:32:17.524Z,15.53
2019-03-06T05:33:33.841Z,13.95
2019-03-06T05:34:50.258Z,14.55
2019-03-06T05:36:06.740Z,14.58
2019-03-06T05:38:39.273Z,15.83
2019-03-06T05:39:55.806Z,15.05
2019-03-06T05:41:12.585Z,14.95
2019-03-06T05:42:28.919Z,15.00
2019-03-06T05:43:45.394Z,14.07
2019-03-06T05:45:02.746Z,14.43
2019-03-06T05:46:19.336Z,15.65
2019-03-06T05:47:36.572Z,16.00
2019-03-06T05:48:53.510Z,13.00
2019-03-06T05:50:10.063Z,15.05
2019-03-06T05:51:26.551Z,13.80
2019-03-06T05:52:43.272Z,14.45
2019-03-06T05:54:00.311Z,13.70
2019-03-06T05:55:16.749Z,11.20
2019-03-06T05:56:33.576Z,15.70
2019-03-06T05:57:50.098Z,14.33
2019-03-06T05:59:07.163Z,16.35
2019-03-06T06:00:26.468Z,13.38
2019-03-06T06:01:43.130Z,16.65
2019-03-06T06:02:59.509Z,14.70
2019-03-06T06:04:16.061Z,15.85
2019-03-06T06:05:32.699Z,16.95
2019-03-06T06:06:49.740Z,17.73
2019-03-06T06:08:06.548Z,17.05
2019-03-06T06:09:23.932Z,16.23
2019-03-06T06:10:40.542Z,14.68
2019-03-06T06:11:57.589Z,12.75
2019-03-06T06:13:14.799Z,11.90
2019-03-06T06:14:31.984Z,14.40
2019-03-06T06:15:48.374Z,10.93
2019-03-06T06:17:05.568Z,10.45
2019-03-06T06:18:22.339Z,10.40
2019-03-06T06:19:39.042Z,9.23
2019-03-06T06:21:14.498Z,8.95
2019-03-06T06:22:35.976Z,9.83
2019-03-06T06:23:56.630Z,8.73
2019-03-06T06:25:13.018Z,9.23
2019-03-06T06:26:29.621Z,8.75
2019-03-06T06:27:46.372Z,8.55
2019-03-06T06:29:02.921Z,9.08
2019-03-06T06:30:19.508Z,7.35
2019-03-06T06:31:35.829Z,7.05
2019-03-06T06:32:52.449Z,6.92
2019-03-06T06:34:09.029Z,6.85
2019-03-06T06:35:26.460Z,7.15
2019-03-06T06:36:44.178Z,5.78
2019-03-06T06:38:00.589Z,6.17
2019-03-06T06:39:17.153Z,8.03
2019-03-06T06:40:35.072Z,5.87
2019-03-06T06:41:52.180Z,10.63
2019-03-06T06:43:09.279Z,6.72
2019-03-06T06:44:24.533Z,7.65
2019-03-06T06:45:40.982Z,7.70
2019-03-06T06:46:56.179Z,6.65
2019-03-06T06:48:20.857Z,6.30
2019-03-06T06:49:37.382Z,5.45
2019-03-06T06:51:01.235Z,8.23
2019-03-06T06:52:12.718Z,4.47
2019-03-06T06:53:29.941Z,5.37
2019-03-06T06:54:46.416Z,6.10
2019-03-06T06:56:03.700Z,6.78
2019-03-06T06:57:20.108Z,7.17
2019-03-06T06:58:37.046Z,9.48
2019-03-06T06:59:53.811Z,5.55
2019-03-06T07:01:47.131Z,6.90
2019-03-06T07:03:49.321Z,4.70
2019-03-06T07:05:24.649Z,7.47
2019-03-06T07:07:00.174Z,6.58
2019-03-06T07:08:36.242Z,6.05
2019-03-06T07:10:12.223Z,5.22
2019-03-06T07:11:48.405Z,5.00
2019-03-06T07:13:17.345Z,5.12
2019-03-06T07:14:52.717Z,5.22
2019-03-06T07:16:27.996Z,5.83
2019-03-06T07:18:22.691Z,5.47
2019-03-06T07:21:40.093Z,5.58
2019-03-06T07:23:09.225Z,5.05
2019-03-06T07:24:45.107Z,8.40
2019-03-06T07:26:01.938Z,5.10
2019-03-06T07:27:37.770Z,4.83
2019-03-06T07:29:13.117Z,5.72
2019-03-06T07:30:48.712Z,6.12
2019-03-06T07:32:18.389Z,5.00
2019-03-06T07:33:53.795Z,6.15
2019-03-06T07:35:28.829Z,6.30
2019-03-06T07:36:52.966Z,6.50
2019-03-06T07:38:12.538Z,6.30
2019-03-06T07:41:38.274Z,6.17
2019-03-06T07:43:13.632Z,5.10
2019-03-06T07:44:52.962Z,6.40
2019-03-06T07:46:38.782Z,5.90
2019-03-06T07:48:07.698Z,7.12
2019-03-06T07:49:45.422Z,4.47
2019-03-06T07:51:26.691Z,5.00
2019-03-06T07:53:08.465Z,8.28
2019-03-06T07:54:33.894Z,8.90
2019-03-06T07:56:12.057Z,5.65
2019-03-06T07:57:39.425Z,6.92
2019-03-06T07:58:56.288Z,4.97
2019-03-06T08:00:12.879Z,5.45
2019-03-06T08:01:29.185Z,6.12
2019-03-06T08:02:46.791Z,4.55
2019-03-06T08:04:03.757Z,5.37
2019-03-06T08:05:20.117Z,5.50
2019-03-06T08:06:37.478Z,4.95
2019-03-06T08:07:54.352Z,4.85
2019-03-06T08:09:10.697Z,7.97
2019-03-06T08:10:30.649Z,5.60
2019-03-06T08:12:09.555Z,4.03
2019-03-06T08:15:22.967Z,5.65
2019-03-06T08:18:10.501Z,5.78
2019-03-06T08:19:46.114Z,4.72
2019-03-06T08:21:21.430Z,4.67
2019-03-06T08:22:59.602Z,4.55
2019-03-06T08:24:35.170Z,4.75
2019-03-06T08:25:52.218Z,5.90
2019-03-06T08:27:09.518Z,3.98
2019-03-06T08:28:26.034Z,5.67
2019-03-06T08:29:43.241Z,7.35
2019-03-06T08:31:24.737Z,5.72
2019-03-06T08:32:42.046Z,4.50
2019-03-06T08:33:59.241Z,6.20
2019-03-06T08:35:15.913Z,4.95
2019-03-06T08:36:32.358Z,4.80
2019-03-06T08:37:48.638Z,4.28
2019-03-06T08:39:05.605Z,4.37
2019-03-06T08:40:23.961Z,4.12
2019-03-06T08:41:41.232Z,4.25
2019-03-06T08:42:58.450Z,6.78
2019-03-06T08:44:15.024Z,6.33
2019-03-06T08:47:42.107Z,4.28
2019-03-06T08:49:06.749Z,4.20
2019-03-06T08:50:37.124Z,5.65
2019-03-06T08:52:12.617Z,6.92
2019-03-06T08:53:55.034Z,5.80
2019-03-06T08:55:17.345Z,7.92
2019-03-06T08:56:53.186Z,4.67
2019-03-06T08:58:29.094Z,4.80
2019-03-06T09:00:04.455Z,5.30
2019-03-06T09:01:41.633Z,7.03
2019-03-06T09:03:17.204Z,5.62
2019-03-06T09:06:36.422Z,5.10
2019-03-06T09:08:11.801Z,5.50
2019-03-06T09:09:42.364Z,6.12
2019-03-06T09:11:24.893Z,5.90
2019-03-06T09:12:46.901Z,5.00
2019-03-06T09:14:18.033Z,5.78
2019-03-06T09:16:04.022Z,5.45
2019-03-06T09:17:33.850Z,5.92
2019-03-06T09:19:09.203Z,5.83
2019-03-06T09:22:38.148Z,4.60
2019-03-06T09:24:13.522Z,4.55
2019-03-06T09:25:51.985Z,4.70
2019-03-06T09:27:26.184Z,5.87
2019-03-06T09:29:01.015Z,8.18
2019-03-06T09:30:38.342Z,4.85
2019-03-06T09:35:29.357Z,8.10
2019-03-06T09:37:07.625Z,5.53
2019-03-06T09:38:46.116Z,6.17
2019-03-06T09:40:21.651Z,4.85
2019-03-06T09:42:02.909Z,4.12
2019-03-06T09:43:41.677Z,4.75
2019-03-06T09:45:17.598Z,4.47
2019-03-06T09:46:54.410Z,4.00
2019-03-06T09:48:17.347Z,6.28
2019-03-06T09:49:39.768Z,4.40
2019-03-06T09:51:01.722Z,3.55
2019-03-06T09:52:37.049Z,3.85
2019-03-06T09:54:01.235Z,5.40
2019-03-06T09:56:52.703Z,4.00
2019-03-06T09:58:15.625Z,4.40
2019-03-06T09:59:51.617Z,4.22
2019-03-06T10:01:27.765Z,5.03
2019-03-06T10:02:51.061Z,6.37
2019-03-06T10:04:26.471Z,3.20
2019-03-06T10:06:05.167Z,4.00
2019-03-06T10:09:17.274Z,5.72
2019-03-06T10:10:57.616Z,2.75
2019-03-06T10:12:25.151Z,3.77
2019-03-06T10:14:01.247Z,3.33
2019-03-06T10:15:37.013Z,6.53
2019-03-06T10:17:00.433Z,2.75
2019-03-06T10:18:35.930Z,3.65
2019-03-06T10:20:00.754Z,2.55
2019-03-06T10:21:17.119Z,3.42
2019-03-06T10:22:33.741Z,4.25
2019-03-06T10:23:51.014Z,4.05
2019-03-06T10:25:08.513Z,3.95
2019-03-06T10:26:24.977Z,2.27
2019-03-06T10:27:41.474Z,3.00
2019-03-06T10:28:58.555Z,2.72
2019-03-06T10:30:18.623Z,2.25
2019-03-06T10:31:35.152Z,2.27
2019-03-06T10:32:52.056Z,4.40
2019-03-06T10:34:08.566Z,2.55
2019-03-06T10:35:26.035Z,2.65
2019-03-06T10:36:42.670Z,3.35
2019-03-06T10:38:00.699Z,3.10
2019-03-06T10:39:17.360Z,3.33
2019-03-06T10:40:33.698Z,2.70
2019-03-06T10:41:51.241Z,2.20
2019-03-06T10:43:08.086Z,2.95
2019-03-06T10:44:29.589Z,5.10
2019-03-06T10:45:43.921Z,5.30
2019-03-06T10:47:00.500Z,2.40
2019-03-06T10:48:18.128Z,1.95
2019-03-06T10:49:34.920Z,3.15
2019-03-06T10:50:52.485Z,2.80
2019-03-06T10:52:10.716Z,3.52
2019-03-06T10:53:28.285Z,2.80
2019-03-06T10:54:45.127Z,3.00
2019-03-06T10:56:02.288Z,3.08
2019-03-06T10:57:19.562Z,2.83
2019-03-06T10:58:36.277Z,2.67
2019-03-06T10:59:53.485Z,2.90
2019-03-06T11:01:09.864Z,2.33
2019-03-06T11:02:26.514Z,2.50
2019-03-06T11:05:37.243Z,3.80
2019-03-06T11:06:54.884Z,2.12
2019-03-06T11:08:11.861Z,2.60
2019-03-06T11:10:45.228Z,3.02
2019-03-06T11:12:01.830Z,2.80
2019-03-06T11:14:35.043Z,2.72
2019-03-06T11:15:55.773Z,5.92
2019-03-06T11:17:10.062Z,3.15
2019-03-06T11:18:27.545Z,3.58
2019-03-06T11:19:44.306Z,2.17
2019-03-06T11:21:01.602Z,2.30
2019-03-06T11:22:18.144Z,2.33
2019-03-06T11:23:34.717Z,2.83
2019-03-06T11:24:51.168Z,1.52
2019-03-06T11:26:07.662Z,2.80
2019-03-06T11:27:24.794Z,2.50
2019-03-06T11:28:43.032Z,2.95
2019-03-06T11:29:59.429Z,3.45
2019-03-06T11:31:16.921Z,2.62
2019-03-06T11:32:33.381Z,7.37
2019-03-06T11:33:49.859Z,2.35
2019-03-06T11:35:06.241Z,6.60
2019-03-06T11:36:22.806Z,4.47
2019-03-06T11:37:40.008Z,2.95
2019-03-06T11:38:57.226Z,4.70
2019-03-06T11:40:14.384Z,4.10
2019-03-06T11:41:30.965Z,3.02
2019-03-06T11:42:47.456Z,5.70
2019-03-06T11:44:04.198Z,3.10
2019-03-06T11:45:21.522Z,5.35
2019-03-06T11:46:38.019Z,5.00
2019-03-06T11:47:54.502Z,2.77
2019-03-06T11:49:11.752Z,3.45
2019-03-06T11:50:28.110Z,5.87
2019-03-06T11:51:44.833Z,3.17
2019-03-06T11:53:01.335Z,4.60
2019-03-06T11:54:18.549Z,2.42
2019-03-06T11:55:35.742Z,3.85
2019-03-06T11:56:52.337Z,3.62
2019-03-06T11:58:09.231Z,3.00
2019-03-06T11:59:25.809Z,3.20
2019-03-06T12:00:45.921Z,2.42
2019-03-06T12:02:02.543Z,4.17
2019-03-06T12:03:20.316Z,6.75
2019-03-06T12:04:36.967Z,2.92
2019-03-06T12:05:53.505Z,2.17
2019-03-06T12:07:10.784Z,4.15
2019-03-06T12:08:27.164Z,2.02
2019-03-06T12:09:43.729Z,3.20
2019-03-06T12:11:00.241Z,4.58
2019-03-06T12:12:16.681Z,3.00
2019-03-06T12:13:33.404Z,2.98
2019-03-06T12:14:49.675Z,3.12
2019-03-06T12:16:06.225Z,2.45
2019-03-06T12:17:23.135Z,1.80
2019-03-06T12:18:39.658Z,3.92
2019-03-06T12:19:56.393Z,3.12
2019-03-06T12:21:13.170Z,2.30
2019-03-06T12:22:30.465Z,3.35
2019-03-06T12:23:46.934Z,2.60
2019-03-06T12:26:20.489Z,2.83
2019-03-06T12:27:37.305Z,4.75
2019-03-06T12:28:53.632Z,3.22
2019-03-06T12:30:10.146Z,3.15
2019-03-06T12:31:27.217Z,3.15
2019-03-06T12:34:00.118Z,3.08
2019-03-06T12:35:15.772Z,2.00
2019-03-06T12:36:40.033Z,3.20
2019-03-06T12:37:57.089Z,1.70
2019-03-06T12:39:13.772Z,2.02
2019-03-06T12:40:31.222Z,1.27
2019-03-06T12:41:47.664Z,1.52
2019-03-06T12:43:04.007Z,1.45
2019-03-06T12:44:20.448Z,1.75
2019-03-06T12:45:36.891Z,2.00
2019-03-06T12:46:53.865Z,1.42
2019-03-06T12:48:11.180Z,1.75
2019-03-06T12:49:27.683Z,2.75
2019-03-06T12:50:54.139Z,2.10
2019-03-06T12:52:03.092Z,2.58
2019-03-06T12:53:20.161Z,2.52
2019-03-06T12:54:36.618Z,1.60
2019-03-06T12:55:53.440Z,2.33
2019-03-06T12:57:13.185Z,1.80
2019-03-06T12:58:29.503Z,2.55
2019-03-06T12:59:46.585Z,3.40
2019-03-06T13:01:02.905Z,1.80
2019-03-06T13:02:20.054Z,3.98
2019-03-06T13:03:37.257Z,1.80
2019-03-06T13:04:54.421Z,2.35
2019-03-06T13:06:11.069Z,1.35
2019-03-06T13:07:26.713Z,1.60
2019-03-06T13:08:50.974Z,1.85
2019-03-06T13:10:09.089Z,1.92
2019-03-06T13:11:25.684Z,1.77
2019-03-06T13:12:43.033Z,1.65
2019-03-06T13:13:59.724Z,2.80
2019-03-06T13:15:15.700Z,1.77
2019-03-06T13:16:41.112Z,1.90
2019-03-06T13:19:19.469Z,1.35
2019-03-06T13:20:35.882Z,1.52
2019-03-06T13:21:52.318Z,1.65
2019-03-06T13:23:08.929Z,1.35
2019-03-06T13:24:25.867Z,1.82
2019-03-06T13:25:42.976Z,1.32
2019-03-06T13:26:59.612Z,2.15
2019-03-06T13:28:16.224Z,1.20
2019-03-06T13:29:33.200Z,1.35
2019-03-06T13:30:50.448Z,3.22
2019-03-06T13:32:11.776Z,2.15
2019-03-06T13:33:31.050Z,1.32
2019-03-06T13:34:53.789Z,1.90
2019-03-06T13:36:12.373Z,1.98
2019-03-06T13:37:29.029Z,1.10
2019-03-06T13:38:54.489Z,1.45
2019-03-06T13:40:04.717Z,1.47
2019-03-06T13:41:21.908Z,1.42
2019-03-06T13:42:38.250Z,6.37
2019-03-06T13:43:54.705Z,1.57
2019-03-06T13:45:12.058Z,1.50
2019-03-06T13:46:28.802Z,1.95
2019-03-06T13:47:45.569Z,2.37
2019-03-06T13:49:02.656Z,0.95
2019-03-06T13:50:20.094Z,1.10
2019-03-06T13:51:37.401Z,1.45
2019-03-06T13:52:53.795Z,1.98
2019-03-06T13:54:10.271Z,1.65
2019-03-06T13:55:26.578Z,1.65
2019-03-06T13:56:43.302Z,1.40
2019-03-06T13:57:58.629Z,1.40
2019-03-06T13:59:23.711Z,2.40
2019-03-06T14:00:40.084Z,0.90
2019-03-06T14:01:57.412Z,1.42
2019-03-06T14:03:13.958Z,1.57
2019-03-06T14:04:31.050Z,1.50
2019-03-06T14:05:47.537Z,1.70
2019-03-06T14:07:04.521Z,1.32
2019-03-06T14:08:21.851Z,1.65
2019-03-06T14:09:38.618Z,1.57
2019-03-06T14:10:56.129Z,1.27
2019-03-06T14:12:12.358Z,1.60
2019-03-06T14:13:27.662Z,2.00
2019-03-06T14:14:51.826Z,2.55
2019-03-06T14:16:08.874Z,3.08
2019-03-06T14:17:25.520Z,1.15
2019-03-06T14:18:41.950Z,2.20
2019-03-06T14:19:59.184Z,1.20
2019-03-06T14:21:15.661Z,2.10
2019-03-06T14:22:30.908Z,1.60
2019-03-06T14:23:55.028Z,1.35
2019-03-06T14:25:11.448Z,1.50
2019-03-06T14:26:28.193Z,2.45
2019-03-06T14:27:45.687Z,1.27
2019-03-06T14:29:02.241Z,0.90
2019-03-06T14:30:18.943Z,1.32
2019-03-06T14:31:35.378Z,0.90
2019-03-06T14:32:51.808Z,1.02
2019-03-06T14:34:09.461Z,2.83
2019-03-06T14:35:25.968Z,0.80
2019-03-06T14:36:43.642Z,1.22
2019-03-06T14:38:01.062Z,2.77
2019-03-06T14:39:17.557Z,2.37
2019-03-06T14:40:34.081Z,1.60
2019-03-06T14:41:51.578Z,1.85
2019-03-06T14:43:08.937Z,2.72
2019-03-06T14:44:26.328Z,4.80
2019-03-06T14:45:42.846Z,1.37
2019-03-06T14:46:59.457Z,2.40
2019-03-06T14:48:18.726Z,1.85
2019-03-06T14:49:35.386Z,2.08
2019-03-06T14:50:53.588Z,1.67
2019-03-06T14:52:10.171Z,1.40
2019-03-06T14:53:27.427Z,2.00
2019-03-06T14:54:43.814Z,1.90
2019-03-06T14:56:01.072Z,1.82
2019-03-06T14:57:18.369Z,1.85
2019-03-06T14:59:51.017Z,2.33
2019-03-06T15:01:08.178Z,1.32
2019-03-06T15:02:25.454Z,1.45
2019-03-06T15:03:42.655Z,2.52
2019-03-06T15:04:59.582Z,1.00
2019-03-06T15:06:16.015Z,1.60
2019-03-06T15:07:33.035Z,3.05
2019-03-06T15:08:49.642Z,1.70
2019-03-06T15:10:07.237Z,2.22
2019-03-06T15:11:32.732Z,1.90
2019-03-06T15:12:42.402Z,1.55
2019-03-06T15:13:59.146Z,2.20
2019-03-06T15:15:15.513Z,1.27
2019-03-06T15:16:32.143Z,1.42
2019-03-06T15:17:48.818Z,2.70
2019-03-06T15:19:05.284Z,1.60
2019-03-06T15:20:21.691Z,4.22
2019-03-06T15:21:38.564Z,1.40
2019-03-06T15:22:55.527Z,2.05
2019-03-06T15:24:12.762Z,2.35
2019-03-06T15:25:29.211Z,1.70
2019-03-06T15:26:46.702Z,1.40
2019-03-06T15:28:03.436Z,1.55
2019-03-06T15:29:19.806Z,2.25
2019-03-06T15:30:36.651Z,3.47
2019-03-06T15:31:53.325Z,2.20
2019-03-06T15:33:10.282Z,2.62
2019-03-06T15:34:28.394Z,1.25
2019-03-06T15:35:44.857Z,2.45
2019-03-06T15:37:01.308Z,2.70
2019-03-06T15:38:17.937Z,2.72
2019-03-06T15:39:42.605Z,2.15
2019-03-06T15:40:52.941Z,1.80
2019-03-06T15:42:09.775Z,1.95
2019-03-06T15:43:27.124Z,2.00
2019-03-06T15:44:43.919Z,4.50
2019-03-06T15:46:00.622Z,4.70
2019-03-06T15:47:17.882Z,3.80
2019-03-06T15:48:34.954Z,2.75
2019-03-06T15:49:52.142Z,2.02
2019-03-06T15:51:09.401Z,3.15
2019-03-06T15:52:26.120Z,2.55
2019-03-06T15:53:43.231Z,2.00
2019-03-06T15:54:58.381Z,2.98
2019-03-06T15:56:22.552Z,1.90
2019-03-06T15:57:39.457Z,4.30
2019-03-06T15:58:55.918Z,2.83
2019-03-06T16:00:13.826Z,3.50
2019-03-06T16:01:31.117Z,4.30
2019-03-06T16:02:48.165Z,3.30
2019-03-06T16:04:04.658Z,4.25
2019-03-06T16:05:21.632Z,3.37
2019-03-06T16:06:38.177Z,5.45
2019-03-06T16:07:55.468Z,2.90
2019-03-06T16:09:11.969Z,6.37
2019-03-06T16:10:28.697Z,5.85
2019-03-06T16:11:45.984Z,3.40
2019-03-06T16:13:02.600Z,2.85
2019-03-06T16:14:20.845Z,2.87
2019-03-06T16:15:38.319Z,5.10
2019-03-06T16:16:54.709Z,2.40
2019-03-06T16:18:11.066Z,4.70
2019-03-06T16:19:28.281Z,2.72
2019-03-06T16:20:44.628Z,3.83
2019-03-06T16:22:01.033Z,2.72
2019-03-06T16:23:17.678Z,2.85
2019-03-06T16:24:35.026Z,2.75
2019-03-06T16:25:51.421Z,2.35
2019-03-06T16:27:08.094Z,3.62
2019-03-06T16:28:25.809Z,2.87
2019-03-06T16:29:42.171Z,3.90
2019-03-06T16:30:59.112Z,4.25
2019-03-06T16:32:15.720Z,4.58
2019-03-06T16:33:32.946Z,3.00
2019-03-06T16:34:50.241Z,3.00
2019-03-06T16:36:07.218Z,2.87
2019-03-06T16:37:23.738Z,2.58
2019-03-06T16:38:40.872Z,4.55
2019-03-06T16:39:58.473Z,5.70
2019-03-06T16:41:15.323Z,4.35
2019-03-06T16:42:33.689Z,5.35
2019-03-06T16:43:53.913Z,5.00
2019-03-06T16:45:10.390Z,3.77
2019-03-06T16:46:26.840Z,3.35
2019-03-06T16:47:44.022Z,3.37
2019-03-06T16:49:00.603Z,2.30
2019-03-06T16:50:17.191Z,5.35
2019-03-06T16:51:33.681Z,4.35
2019-03-06T16:52:50.126Z,3.87
2019-03-06T16:54:07.017Z,3.33
2019-03-06T16:55:23.342Z,3.75
2019-03-06T16:56:40.191Z,4.08
2019-03-06T16:57:57.473Z,4.92
2019-03-06T16:59:14.736Z,3.20
2019-03-06T17:00:31.132Z,5.67
2019-03-06T17:01:47.565Z,4.47
2019-03-06T17:03:04.887Z,2.70
2019-03-06T17:04:21.786Z,3.75
2019-03-06T17:05:38.657Z,3.33
2019-03-06T17:06:54.955Z,5.17
2019-03-06T17:08:11.891Z,3.10
2019-03-06T17:09:28.486Z,5.40
2019-03-06T17:10:44.942Z,5.30
2019-03-06T17:12:02.163Z,3.90
2019-03-06T17:13:19.554Z,8.83
2019-03-06T17:14:36.112Z,5.12
2019-03-06T17:15:53.095Z,3.58
2019-03-06T17:17:09.835Z,4.75
2019-03-06T17:18:27.653Z,3.05
2019-03-06T17:19:44.748Z,3.65
2019-03-06T17:21:01.128Z,4.62
2019-03-06T17:22:18.394Z,5.87
2019-03-06T17:23:34.748Z,3.33
2019-03-06T17:24:52.055Z,3.92
2019-03-06T17:26:07.672Z,4.12
2019-03-06T17:27:31.771Z,5.28
2019-03-06T17:28:48.311Z,7.78
2019-03-06T17:30:05.467Z,6.72
2019-03-06T17:31:22.268Z,3.10
2019-03-06T17:32:39.502Z,3.15
2019-03-06T17:33:56.350Z,3.85
2019-03-06T17:35:12.976Z,4.08
2019-03-06T17:36:29.806Z,6.45
2019-03-06T17:37:46.181Z,4.22
2019-03-06T17:39:02.613Z,4.03
2019-03-06T17:40:20.816Z,4.30
2019-03-06T17:41:37.889Z,3.58
2019-03-06T17:42:54.393Z,4.60
2019-03-06T17:44:11.220Z,3.52
2019-03-06T17:45:28.642Z,2.90
2019-03-06T17:46:45.176Z,5.75
2019-03-06T17:48:02.480Z,3.00
2019-03-06T17:49:19.239Z,4.53
2019-03-06T17:50:36.480Z,6.15
2019-03-06T17:51:53.390Z,3.85
2019-03-06T17:53:10.562Z,2.47
2019-03-06T17:54:27.089Z,3.50
2019-03-06T17:55:43.552Z,2.52
2019-03-06T17:57:01.115Z,3.10
2019-03-06T17:58:19.998Z,5.95
2019-03-06T17:59:36.540Z,3.27
2019-03-06T18:03:00.971Z,4.83
2019-03-06T18:04:16.907Z,6.08